Time;durP1;ratioP1;P1;durP2;ratioP2;P2;SDS_P1;SDS_P2;PMS_P1;PMS_P2;Temp;Humidity;BMP_temperature;BMP_pressure;BME280_temperature;BME280_humidity;BME280_pressure;Samples;Min_cycle;Max_cycle;Signal;HPM_P1;HPM_P2
2021/06/02 00:03:30;;;;;;;10.02;7.45;;;;;;;16.16;70.82;101119.25;4984017;28;20508;-84
2021/06/02 00:05:55;;;;;;;10.15;7.47;;;;;;;16.07;70.64;101109.56;4954935;28;20568;-84
2021/06/02 00:08:23;;;;;;;10.93;8.15;;;;;;;16.09;70.38;101107.53;4964133;28;20333;-85
2021/06/02 00:10:49;;;;;;;11.35;8.02;;;;;;;16.11;70.25;101101.91;4973160;28;20046;-85
2021/06/02 00:13:16;;;;;;;9.52;7.07;;;;;;;16.04;70.85;101106.44;5005155;28;20371;-85
2021/06/02 00:15:42;;;;;;;11.55;8.00;;;;;;;16.08;70.62;101111.25;4987254;28;20050;-85
2021/06/02 00:18:07;;;;;;;12.88;7.80;;;;;;;16.05;70.91;101105.38;4987502;28;20034;-84
2021/06/02 00:20:33;;;;;;;10.57;6.97;;;;;;;16.07;70.74;101104.16;5001856;28;20042;-85
2021/06/02 00:22:58;;;;;;;14.35;7.95;;;;;;;16.06;71.14;101115.19;4969685;28;20046;-84
2021/06/02 00:25:24;;;;;;;9.98;7.78;;;;;;;16.04;71.07;101114.56;4999001;28;20045;-85
2021/06/02 00:27:54;;;;;;;10.30;8.13;;;;;;;16.01;71.52;101107.66;4998905;28;20505;-85
2021/06/02 00:30:20;;;;;;;12.45;8.32;;;;;;;16.03;71.25;101121.84;4982448;28;20410;-84
2021/06/02 00:32:46;;;;;;;12.27;9.48;;;;;;;16.10;71.07;101111.91;4963313;28;20136;-84
2021/06/02 00:35:16;;;;;;;13.45;9.10;;;;;;;16.10;71.27;101120.03;4996358;28;20048;-85
2021/06/02 00:37:41;;;;;;;11.60;8.05;;;;;;;16.12;71.01;101115.25;4985779;28;20038;-84
2021/06/02 00:40:15;;;;;;;12.73;9.02;;;;;;;16.15;70.83;101114.88;4972715;28;20038;-84
2021/06/02 00:42:41;;;;;;;11.63;8.93;;;;;;;16.15;70.96;101103.22;5006601;28;20060;-85
2021/06/02 00:45:07;;;;;;;11.55;9.18;;;;;;;16.13;71.33;101105.25;4989340;28;20129;-85
2021/06/02 00:47:36;;;;;;;14.35;9.13;;;;;;;16.10;71.50;101100.25;4992646;28;20561;-83
2021/06/02 00:50:02;;;;;;;17.60;9.18;;;;;;;16.09;72.00;101101.28;4986322;28;20487;-85
2021/06/02 00:52:28;;;;;;;10.38;8.30;;;;;;;16.08;72.04;101096.88;4974640;28;20058;-85
2021/06/02 00:54:53;;;;;;;14.57;9.73;;;;;;;16.05;72.25;101097.25;4977403;28;20045;-85
2021/06/02 00:57:24;;;;;;;12.48;9.55;;;;;;;16.01;72.37;101100.34;4980610;28;20042;-85
2021/06/02 01:00:07;;;;;;;14.10;9.35;;;;;;;16.02;72.20;101091.22;4986509;28;20046;-85
2021/06/02 01:02:35;;;;;;;12.93;9.50;;;;;;;15.98;72.70;101100.75;4995120;28;20029;-85
2021/06/02 01:05:01;;;;;;;12.27;9.20;;;;;;;15.97;72.68;101099.09;4997184;28;20030;-85
2021/06/02 01:07:27;;;;;;;15.55;9.77;;;;;;;15.97;72.89;101095.53;4972702;28;20038;-85
2021/06/02 01:09:57;;;;;;;15.48;9.85;;;;;;;15.95;73.51;101098.44;4955687;28;20049;-84
2021/06/02 01:12:25;;;;;;;14.85;10.48;;;;;;;15.96;72.85;101094.69;4977465;28;20097;-84
2021/06/02 01:14:52;;;;;;;12.90;9.50;;;;;;;15.97;72.89;101090.97;4998527;28;20088;-84
2021/06/02 01:17:20;;;;;;;14.25;9.80;;;;;;;15.98;73.30;101081.81;5005467;28;20401;-85
2021/06/02 01:19:46;;;;;;;12.13;9.63;;;;;;;15.94;73.23;101085.94;4988640;28;20057;-85
2021/06/02 01:22:12;;;;;;;13.10;9.57;;;;;;;15.91;73.88;101080.91;4998897;28;20033;-84
2021/06/02 01:24:38;;;;;;;13.40;9.70;;;;;;;15.91;73.65;101075.50;4984799;28;20050;-84
2021/06/02 01:27:07;;;;;;;14.15;10.60;;;;;;;15.90;73.97;101087.34;4969750;28;20050;-84
2021/06/02 01:29:34;;;;;;;13.18;9.80;;;;;;;15.86;74.04;101077.94;4987017;28;20093;-85
2021/06/02 01:32:42;;;;;;;13.30;10.15;;;;;;;15.75;74.36;101081.97;4976246;28;20051;-84
2021/06/02 01:35:41;;;;;;;15.52;10.27;;;;;;;15.65;75.01;101078.72;4978737;28;20049;-84
2021/06/02 01:38:25;;;;;;;14.80;9.98;;;;;;;15.54;76.13;101084.63;4990001;28;20048;-84
2021/06/02 01:41:23;;;;;;;14.75;9.77;;;;;;;15.53;76.37;101083.75;5000346;28;20045;-85
2021/06/02 01:44:07;;;;;;;13.23;10.07;;;;;;;15.45;76.91;101081.19;4976379;28;20049;-84
2021/06/02 01:47:09;;;;;;;12.80;9.82;;;;;;;15.44;76.63;101068.69;4980044;28;20047;-85
2021/06/02 01:49:53;;;;;;;15.90;10.10;;;;;;;15.34;77.23;101068.97;4973553;28;20042;-85
2021/06/02 01:52:27;;;;;;;16.42;9.68;;;;;;;15.34;76.81;101068.97;4982359;28;20049;-85
2021/06/02 01:55:40;;;;;;;13.27;10.10;;;;;;;15.33;76.98;101067.31;4983377;28;20049;-85
2021/06/02 01:58:06;;;;;;;15.13;10.43;;;;;;;15.30;77.27;101074.94;4933769;28;20123;-85
2021/06/02 02:00:40;;;;;;;15.02;10.48;;;;;;;15.21;78.69;101067.97;4993046;28;20125;-86
2021/06/02 02:03:42;;;;;;;15.85;10.95;;;;;;;15.16;78.41;101071.22;4992002;28;20050;-85
2021/06/02 02:06:32;;;;;;;15.20;11.00;;;;;;;15.13;78.61;101060.78;4971308;28;20054;-86
2021/06/02 02:09:12;;;;;;;14.13;10.63;;;;;;;15.11;78.75;101063.69;4966704;28;20042;-85
2021/06/02 02:11:41;;;;;;;16.08;10.65;;;;;;;15.03;79.27;101054.84;5009385;28;20042;-85
2021/06/02 02:14:45;;;;;;;13.07;10.70;;;;;;;15.07;78.38;101051.56;5013628;28;20386;-85
2021/06/02 02:17:42;;;;;;;15.32;10.65;;;;;;;15.07;78.66;101050.72;4973405;28;20566;-85
2021/06/02 02:20:58;;;;;;;15.50;10.60;;;;;;;15.01;78.77;101052.31;4960938;28;20048;-85
2021/06/02 02:23:35;;;;;;;13.88;10.82;;;;;;;15.02;78.55;101053.19;4990719;28;20095;-85
2021/06/02 02:26:22;;;;;;;13.98;10.35;;;;;;;15.01;77.79;101055.00;4996114;28;20037;-85
2021/06/02 02:29:26;;;;;;;14.05;10.15;;;;;;;14.91;78.97;101049.06;4997760;28;20048;-85
2021/06/02 02:32:09;;;;;;;16.83;10.95;;;;;;;14.85;79.26;101056.06;4974803;28;20413;-84
2021/06/02 02:35:29;;;;;;;14.73;10.68;;;;;;;14.84;79.38;101053.53;4997798;28;20141;-85
2021/06/02 02:38:19;;;;;;;15.27;11.35;;;;;;;14.74;80.26;101053.81;4929621;29;20043;-85
2021/06/02 02:41:06;;;;;;;15.43;12.48;;;;;;;14.75;79.88;101054.66;4933586;28;20043;-85
2021/06/02 02:43:42;;;;;;;15.88;12.60;;;;;;;14.73;80.22;101053.97;4989957;28;20380;-84
2021/06/02 02:46:15;;;;;;;16.15;11.50;;;;;;;14.72;79.32;101049.63;5009111;28;20502;-85
2021/06/02 02:49:05;;;;;;;16.98;11.80;;;;;;;14.65;80.73;101052.22;5004156;28;20038;-85
2021/06/02 02:51:52;;;;;;;16.92;11.77;;;;;;;14.59;80.94;101047.56;4997196;28;20076;-85
2021/06/02 02:54:42;;;;;;;15.65;11.55;;;;;;;14.51;81.45;101048.44;5002951;28;20234;-85
2021/06/02 02:57:31;;;;;;;17.20;12.40;;;;;;;14.48;81.43;101056.91;4975308;28;20052;-84
2021/06/02 03:00:05;;;;;;;14.70;12.13;;;;;;;14.48;81.08;101045.28;4970156;28;20057;-84
2021/06/02 03:02:54;;;;;;;18.65;12.18;;;;;;;14.45;81.24;101051.88;4982412;28;20431;-84
2021/06/02 03:05:27;;;;;;;17.08;12.15;;;;;;;14.43;81.48;101052.06;5000775;28;20065;-85
2021/06/02 03:08:06;;;;;;;15.93;11.68;;;;;;;14.34;82.09;101049.63;4974096;28;20042;-84
2021/06/02 03:10:35;;;;;;;17.48;12.57;;;;;;;14.31;82.88;101044.59;4992161;28;20111;-84
2021/06/02 03:13:03;;;;;;;;;;;;;;;14.33;81.17;101042.56;4992827;28;20428;-85
2021/06/02 03:15:46;;;;;;;16.45;11.88;;;;;;;14.25;82.16;101053.41;5008274;28;20396;-85
2021/06/02 03:18:19;;;;;;;18.00;14.23;;;;;;;14.18;82.67;101046.06;4999258;28;20086;-86
2021/06/02 03:21:13;;;;;;;17.65;12.55;;;;;;;14.20;82.07;101046.69;4974892;28;20038;-85
2021/06/02 03:23:57;;;;;;;18.35;13.10;;;;;;;14.19;82.26;101045.03;4995002;28;20552;-85
2021/06/02 03:26:29;;;;;;;17.10;13.57;;;;;;;14.10;82.76;101046.13;4980426;28;20088;-85
2021/06/02 03:29:23;;;;;;;18.48;12.88;;;;;;;14.04;83.94;101049.53;4984362;28;20047;-85
2021/06/02 03:32:14;;;;;;;15.88;12.80;;;;;;;14.06;83.80;101036.69;4998764;28;20494;-85
2021/06/02 03:35:09;;;;;;;18.73;12.93;;;;;;;13.99;82.70;101046.53;4999134;28;20057;-85
2021/06/02 03:37:52;;;;;;;17.50;13.18;;;;;;;13.97;83.75;101044.00;4984554;28;20064;-85
2021/06/02 03:40:32;;;;;;;19.63;13.80;;;;;;;13.91;84.37;101044.72;5002538;28;20096;-85
2021/06/02 03:43:24;;;;;;;18.60;13.40;;;;;;;13.95;83.04;101050.59;4962012;28;20356;-84
2021/06/02 03:46:27;;;;;;;15.85;13.13;;;;;;;13.85;84.91;101055.41;4968066;28;20069;-84
2021/06/02 03:49:10;;;;;;;18.50;13.75;;;;;;;13.87;84.01;101048.81;4955808;28;20054;-85
2021/06/02 03:51:48;;;;;;;18.88;13.70;;;;;;;13.88;83.21;101047.78;4981145;28;20042;-83
2021/06/02 03:54:31;;;;;;;16.83;13.23;;;;;;;13.82;84.77;101044.97;4991471;28;20064;-83
2021/06/02 03:57:00;;;;;;;19.90;14.23;;;;;;;13.86;83.96;101046.28;4967246;28;20506;-84
2021/06/02 03:59:42;;;;;;;;;;;;;;;13.82;84.09;101039.59;5003217;28;20041;-85
2021/06/02 04:02:41;;;;;;;19.52;13.70;;;;;;;13.69;85.35;101042.84;5004790;28;19996;-85
2021/06/02 04:05:30;;;;;;;18.47;14.60;;;;;;;13.69;86.08;101043.69;4970738;28;20243;-85
2021/06/02 04:08:27;;;;;;;17.95;13.80;;;;;;;13.69;85.56;101045.56;4987322;28;20272;-84
2021/06/02 04:11:09;;;;;;;19.77;13.52;;;;;;;13.72;86.12;101037.09;5009700;28;20133;-83
2021/06/02 04:13:34;;;;;;;20.15;14.93;;;;;;;13.71;86.55;101041.66;5004784;28;20049;-83
2021/06/02 04:16:10;;;;;;;21.27;14.88;;;;;;;13.72;86.02;101035.28;5002168;28;20049;-82
2021/06/02 04:18:36;;;;;;;20.77;14.82;;;;;;;13.74;86.41;101043.16;4999063;28;20042;-84
2021/06/02 04:21:03;;;;;;;18.55;13.70;;;;;;;13.74;85.88;101049.41;4973066;28;20044;-85
2021/06/02 04:23:30;;;;;;;18.55;14.95;;;;;;;13.79;85.78;101043.47;4980295;28;20050;-83
2021/06/02 04:26:00;;;;;;;19.60;13.95;;;;;;;13.75;86.20;101037.63;4983095;28;20053;-82
2021/06/02 04:28:27;;;;;;;19.27;14.27;;;;;;;13.81;85.55;101037.88;4987933;28;20046;-84
2021/06/02 04:31:02;;;;;;;22.70;14.52;;;;;;;13.81;86.27;101044.16;5000909;28;20054;-85
2021/06/02 04:33:31;;;;;;;20.20;14.63;;;;;;;13.84;85.24;101048.31;4981681;28;20041;-84
2021/06/02 04:35:58;;;;;;;19.35;14.65;;;;;;;13.82;86.00;101045.81;4989198;28;20093;-83
2021/06/02 04:38:25;;;;;;;19.85;14.88;;;;;;;13.81;86.17;101048.69;4976800;28;20521;-84
2021/06/02 04:40:51;;;;;;;20.00;14.55;;;;;;;13.81;86.01;101043.28;5004491;28;20041;-84
2021/06/02 04:43:19;;;;;;;21.23;14.55;;;;;;;13.87;84.93;101048.00;5001811;28;20128;-84
2021/06/02 04:45:54;;;;;;;21.10;14.65;;;;;;;13.85;85.37;101044.63;4980571;28;20703;-84
2021/06/02 04:48:19;;;;;;;18.80;14.68;;;;;;;13.83;85.90;101044.78;4988575;28;20060;-83
2021/06/02 04:51:11;;;;;;;19.42;15.32;;;;;;;13.81;86.39;101048.69;4979235;28;20054;-83
2021/06/02 04:54:04;;;;;;;17.38;14.18;;;;;;;13.82;85.84;101055.78;4987542;28;20529;-84
2021/06/02 04:56:52;;;;;;;18.73;14.00;;;;;;;13.85;86.48;101058.13;4980913;28;20034;-84
2021/06/02 04:59:46;;;;;;;20.65;14.75;;;;;;;13.85;86.89;101052.72;5008270;28;20042;-84
2021/06/02 05:02:29;;;;;;;18.70;14.27;;;;;;;13.82;87.08;101061.16;5001149;28;20424;-84
2021/06/02 05:05:13;;;;;;;18.50;13.95;;;;;;;13.81;87.17;101060.34;4978668;28;20511;-84
2021/06/02 05:08:00;;;;;;;18.33;13.88;;;;;;;13.99;86.07;101074.34;4990089;28;20037;-84
2021/06/02 05:10:44;;;;;;;18.25;13.93;;;;;;;14.06;84.56;101063.66;4999484;28;20038;-83
2021/06/02 05:13:31;;;;;;;20.92;13.88;;;;;;;14.03;85.05;101069.44;5005520;28;20124;-83
2021/06/02 05:16:34;;;;;;;19.58;14.73;;;;;;;14.04;85.01;101071.13;4974438;28;20072;-84
2021/06/02 05:22:56;;;;;;;19.88;15.23;;;;;;;13.97;86.14;101075.56;4983258;28;20217;-84
2021/06/02 05:25:40;;;;;;;22.20;15.85;;;;;;;13.94;86.80;101065.94;4997743;28;20109;-84
2021/06/02 05:28:37;;;;;;;19.33;15.00;;;;;;;13.94;87.18;101065.13;4959939;28;20045;-85
2021/06/02 05:31:31;;;;;;;21.73;16.50;;;;;;;13.95;87.41;101069.47;4971781;28;20050;-85
2021/06/02 05:34:27;;;;;;;21.83;15.98;;;;;;;13.99;87.34;101071.66;4960190;28;20077;-85
2021/06/02 05:37:03;;;;;;;20.48;16.00;;;;;;;14.11;86.96;101065.84;5000412;28;20177;-85
2021/06/02 05:40:03;;;;;;;22.08;15.50;;;;;;;14.25;87.03;101066.91;4976217;28;20534;-85
2021/06/02 05:43:07;;;;;;;19.17;14.68;;;;;;;14.43;84.22;101076.34;4964879;28;20476;-85
2021/06/02 05:45:54;;;;;;;21.52;15.60;;;;;;;14.54;83.43;101072.41;4980812;28;20712;-85
2021/06/02 05:48:40;;;;;;;23.48;15.60;;;;;;;14.68;82.74;101083.44;4967896;28;20499;-85
2021/06/02 05:51:14;;;;;;;22.35;15.73;;;;;;;14.82;84.26;101074.50;4954904;28;20050;-85
2021/06/02 05:54:10;;;;;;;20.35;15.23;;;;;;;14.93;83.41;101071.31;4976769;28;20491;-86
2021/06/02 05:56:51;;;;;;;21.15;15.93;;;;;;;14.96;84.55;101070.97;5003472;28;20823;-86
2021/06/02 05:59:44;;;;;;;19.92;15.07;;;;;;;15.05;82.60;101069.84;4976227;28;20521;-86
2021/06/02 06:02:34;;;;;;;19.58;15.45;;;;;;;15.18;81.99;101069.19;4957292;28;20046;-85
2021/06/02 06:05:29;;;;;;;19.77;14.70;;;;;;;15.35;82.35;101069.81;4951078;28;20053;-85
2021/06/02 06:08:20;;;;;;;20.48;14.07;;;;;;;15.48;81.43;101074.56;4953982;28;20034;-86
2021/06/02 06:11:08;;;;;;;20.65;14.55;;;;;;;15.62;80.21;101064.72;4988744;28;20046;-85
2021/06/02 06:14:11;;;;;;;18.35;14.35;;;;;;;15.76;80.80;101061.16;4983761;28;20038;-85
2021/06/02 06:16:43;;;;;;;18.75;13.40;;;;;;;15.96;79.74;101067.63;4987617;28;20084;-85
2021/06/02 06:19:24;;;;;;;20.27;14.50;;;;;;;16.12;80.13;101054.88;5006324;28;20338;-86
2021/06/02 06:22:02;;;;;;;18.40;14.00;;;;;;;16.28;78.58;101062.69;4969764;28;20049;-86
2021/06/02 06:25:06;;;;;;;18.40;14.00;;;;;;;16.40;77.58;101054.88;4985739;28;20125;-85
2021/06/02 06:27:49;;;;;;;18.55;13.55;;;;;;;16.52;78.25;101056.03;4984281;28;20061;-85
2021/06/02 06:30:20;;;;;;;17.23;13.68;;;;;;;16.58;77.09;101059.84;4988462;28;20045;-86
2021/06/02 06:32:52;;;;;;;19.15;13.63;;;;;;;16.64;78.14;101059.03;4987167;28;20537;-86
2021/06/02 06:35:19;;;;;;;19.00;13.48;;;;;;;16.83;76.69;101054.81;4987001;28;20069;-86
2021/06/02 06:37:51;;;;;;;18.85;13.68;;;;;;;16.99;76.66;101059.91;4971235;28;20112;-86
2021/06/02 06:40:21;;;;;;;21.23;13.95;;;;;;;17.12;76.07;101057.28;4997272;28;20079;-86
2021/06/02 06:42:54;;;;;;;17.40;11.93;;;;;;;17.25;74.36;101050.25;4978279;28;20183;-86
2021/06/02 06:45:27;;;;;;;15.73;11.30;;;;;;;17.40;73.67;101047.38;4986817;28;20124;-85
2021/06/02 06:47:54;;;;;;;13.93;10.82;;;;;;;17.54;71.91;101049.09;4984862;28;20068;-86
2021/06/02 06:50:20;;;;;;;15.57;10.00;;;;;;;17.67;71.11;101049.16;4980692;28;20046;-86
2021/06/02 06:52:55;;;;;;;13.80;9.85;;;;;;;17.75;71.41;101046.25;4975995;28;20049;-86
2021/06/02 06:55:22;;;;;;;16.52;10.88;;;;;;;17.77;71.35;101048.75;4983238;28;20046;-86
2021/06/02 06:57:49;;;;;;;14.55;10.13;;;;;;;17.88;71.23;101050.06;4987194;28;20050;-86
2021/06/02 07:00:15;;;;;;;15.18;9.93;;;;;;;17.94;70.42;101051.94;4996617;28;20132;-86
2021/06/02 07:02:43;;;;;;;13.95;10.05;;;;;;;18.01;70.45;101055.50;5001035;28;20041;-86
2021/06/02 07:05:09;;;;;;;11.85;10.20;;;;;;;18.06;69.92;101050.28;4970134;28;20569;-86
2021/06/02 07:07:36;;;;;;;15.20;9.13;;;;;;;18.16;70.85;101058.88;5001160;28;20049;-86
2021/06/02 07:10:07;;;;;;;12.85;9.50;;;;;;;18.24;69.69;101055.09;4975146;28;20050;-86
2021/06/02 07:12:35;;;;;;;14.80;9.63;;;;;;;18.33;69.99;101053.03;4970309;28;20035;-86
2021/06/02 07:15:05;;;;;;;15.40;10.33;;;;;;;18.42;69.42;101049.06;4987737;28;20111;-86
2021/06/02 07:17:33;;;;;;;12.63;9.77;;;;;;;18.47;68.94;101043.81;4985540;28;20282;-86
2021/06/02 07:20:03;;;;;;;12.48;9.40;;;;;;;18.52;70.53;101046.72;5004124;28;20502;-86
2021/06/02 07:22:30;;;;;;;11.00;8.85;;;;;;;18.64;68.67;101047.78;4960390;28;20037;-87
2021/06/02 07:25:00;;;;;;;14.23;8.77;;;;;;;18.68;68.85;101040.88;4994796;28;20048;-86
2021/06/02 07:27:27;;;;;;;12.43;9.02;;;;;;;18.72;68.29;101050.25;4987414;28;20451;-86
2021/06/02 07:29:53;;;;;;;11.27;8.63;;;;;;;18.87;68.02;101046.50;5001948;28;20208;-86
2021/06/02 07:32:19;;;;;;;11.50;8.75;;;;;;;18.94;67.86;101052.75;5008299;28;20164;-86
2021/06/02 07:34:47;;;;;;;10.23;8.65;;;;;;;19.03;67.43;101054.19;4990165;28;20076;-86
2021/06/02 07:37:12;;;;;;;10.40;8.35;;;;;;;19.17;66.33;101052.28;4992799;28;20090;-86
2021/06/02 07:39:37;;;;;;;11.63;8.32;;;;;;;19.25;65.51;101051.19;4990518;28;20041;-86
2021/06/02 07:42:05;;;;;;;11.60;8.90;;;;;;;19.33;64.99;101050.94;4997443;28;20049;-86
2021/06/02 07:44:31;;;;;;;13.90;8.88;;;;;;;19.41;66.10;101050.72;5002883;28;20034;-86
2021/06/02 07:46:56;;;;;;;11.02;8.40;;;;;;;19.48;65.22;101051.53;4985878;28;20041;-85
2021/06/02 07:49:22;;;;;;;12.10;9.15;;;;;;;19.51;64.68;101056.53;4967804;28;20038;-86
2021/06/02 07:51:55;;;;;;;12.85;8.75;;;;;;;19.56;64.14;101054.00;5002402;28;20034;-86
2021/06/02 07:54:21;;;;;;;14.15;9.20;;;;;;;19.66;65.85;101047.28;5006499;28;20585;-86
2021/06/02 07:56:47;;;;;;;12.35;9.60;;;;;;;19.75;64.36;101056.84;4987035;28;20052;-86
2021/06/02 07:59:14;;;;;;;13.00;8.38;;;;;;;19.84;64.57;101044.66;4986352;28;20052;-86
2021/06/02 08:01:39;;;;;;;13.00;9.00;;;;;;;19.92;62.73;101047.09;4987499;28;20038;-86
2021/06/02 08:04:05;;;;;;;13.38;9.10;;;;;;;20.00;63.08;101049.56;4983725;28;20042;-86
2021/06/02 08:06:32;;;;;;;12.05;8.93;;;;;;;20.14;63.15;101052.19;4984338;28;20499;-86
2021/06/02 08:08:57;;;;;;;11.18;8.38;;;;;;;20.19;62.35;101039.56;4982016;28;20516;-86
2021/06/02 08:11:24;;;;;;;11.88;8.27;;;;;;;20.32;62.05;101044.09;4990561;28;20128;-86
2021/06/02 08:13:49;;;;;;;14.63;8.70;;;;;;;20.37;62.69;101038.81;4957129;28;20046;-86
2021/06/02 08:16:15;;;;;;;15.82;8.77;;;;;;;20.43;61.89;101045.25;4968363;28;20549;-87
2021/06/02 08:18:40;;;;;;;10.93;8.57;;;;;;;20.62;63.82;101040.69;4979673;28;20045;-87
2021/06/02 08:21:06;;;;;;;14.70;9.30;;;;;;;20.73;61.92;101046.25;4959170;28;20113;-86
2021/06/02 08:23:31;;;;;;;11.60;8.55;;;;;;;20.80;61.03;101038.00;4983705;28;20043;-87
2021/06/02 08:25:57;;;;;;;10.30;7.20;;;;;;;21.01;61.23;101044.91;4976230;28;20109;-86
2021/06/02 08:28:23;;;;;;;11.10;7.07;;;;;;;21.20;59.56;101043.00;4971941;28;20136;-86
2021/06/02 08:30:48;;;;;;;9.30;6.78;;;;;;;21.34;59.83;101051.84;4985815;28;20287;-86
2021/06/02 08:33:14;;;;;;;9.80;6.75;;;;;;;21.51;59.90;101043.91;4985940;28;20042;-87
2021/06/02 08:35:40;;;;;;;10.88;6.30;;;;;;;21.60;59.27;101047.97;4985551;28;20058;-87
2021/06/02 08:38:09;;;;;;;10.27;6.07;;;;;;;21.80;59.31;101048.50;4986087;28;20125;-87
2021/06/02 08:40:35;;;;;;;9.77;5.55;;;;;;;21.95;57.35;101044.53;4997338;28;20049;-86
2021/06/02 08:43:05;;;;;;;6.97;4.65;;;;;;;22.07;54.91;101048.13;4989757;28;20042;-86
2021/06/02 08:45:30;;;;;;;8.77;5.00;;;;;;;22.18;55.58;101044.63;4993154;28;20367;-87
2021/06/02 08:47:56;;;;;;;7.78;5.10;;;;;;;22.28;54.02;101044.03;4989028;28;20061;-86
2021/06/02 08:50:28;;;;;;;6.72;5.00;;;;;;;22.51;55.50;101037.75;4978438;28;20509;-86
2021/06/02 08:52:57;;;;;;;8.75;5.00;;;;;;;22.70;53.72;101039.31;4971846;28;20042;-87
2021/06/02 08:55:23;;;;;;;;;;;;;;;22.71;53.16;101040.13;4988705;28;20385;-87
2021/06/02 08:57:50;;;;;;;7.68;4.50;;;;;;;22.52;51.41;101039.41;4995512;28;19948;-86
2021/06/02 09:00:18;;;;;;;8.82;4.38;;;;;;;22.60;52.88;101043.69;4971331;28;20640;-86
2021/06/02 09:02:45;;;;;;;7.43;4.88;;;;;;;22.67;51.83;101048.00;4978096;28;20123;-87
2021/06/02 09:05:12;;;;;;;8.77;5.10;;;;;;;22.68;51.59;101041.44;4962798;28;20141;-87
2021/06/02 09:07:40;;;;;;;6.35;4.82;;;;;;;22.86;55.24;101032.25;4986840;28;20049;-87
2021/06/02 09:10:11;;;;;;;7.40;4.80;;;;;;;23.08;53.44;101032.50;5001619;28;20176;-87
2021/06/02 09:12:41;;;;;;;6.95;4.40;;;;;;;23.14;53.80;101031.53;4989109;28;20531;-87
2021/06/02 09:15:12;;;;;;;7.40;4.35;;;;;;;23.17;49.99;101030.22;4973906;28;20030;-87
2021/06/02 09:17:58;;;;;;;7.65;4.22;;;;;;;23.19;51.39;101028.91;4990308;28;20069;-86
2021/06/02 09:20:30;;;;;;;5.47;3.85;;;;;;;23.47;49.08;101029.97;4997526;28;20479;-87
2021/06/02 09:22:57;;;;;;;6.53;3.88;;;;;;;23.64;50.36;101036.34;4995761;28;20046;-87
2021/06/02 09:25:23;;;;;;;5.88;3.60;;;;;;;23.63;47.59;101034.69;4988751;28;20124;-86
2021/06/02 09:27:54;;;;;;;6.40;3.90;;;;;;;23.77;48.69;101040.75;4989020;28;20517;-86
2021/06/02 09:30:22;;;;;;;6.10;3.40;;;;;;;23.91;44.90;101043.16;4955238;28;20125;-87
2021/06/02 09:32:52;;;;;;;4.87;3.13;;;;;;;23.71;46.01;101044.47;5000517;28;20044;-87
2021/06/02 09:35:18;;;;;;;6.35;3.83;;;;;;;23.91;46.96;101038.53;5006509;28;20495;-87
2021/06/02 09:37:57;;;;;;;5.25;4.43;;;;;;;24.10;48.61;101037.19;4938368;28;20050;-86
2021/06/02 09:40:34;;;;;;;7.28;3.80;;;;;;;24.16;49.24;101037.28;4960282;28;20137;-87
2021/06/02 09:43:00;;;;;;;7.30;4.03;;;;;;;24.15;48.58;101030.16;4954059;28;20045;-86
2021/06/02 09:45:26;;;;;;;7.63;3.70;;;;;;;24.35;48.29;101035.97;4952103;28;20042;-86
2021/06/02 09:47:57;;;;;;;4.68;3.10;;;;;;;24.42;47.14;101039.34;4969566;28;20411;-86
2021/06/02 09:50:33;;;;;;;5.00;3.58;;;;;;;24.56;46.33;101036.31;4929452;29;20492;-87
2021/06/02 09:53:01;;;;;;;3.65;2.92;;;;;;;24.56;45.33;101030.81;4935463;28;20468;-87
2021/06/02 09:55:31;;;;;;;4.85;3.15;;;;;;;24.59;44.25;101028.41;4934547;28;20630;-87
2021/06/02 09:58:06;;;;;;;7.30;3.40;;;;;;;24.52;40.72;101031.31;4927937;28;20503;-87
2021/06/02 10:00:59;;;;;;;5.40;3.42;;;;;;;24.50;44.66;101028.00;4948953;28;20133;-87
2021/06/02 10:03:32;;;;;;;6.50;3.20;;;;;;;24.63;42.68;101034.19;4934012;28;20047;-87
2021/06/02 10:05:58;;;;;;;6.25;3.22;;;;;;;24.72;45.01;101040.94;4932115;28;20039;-87
2021/06/02 10:08:32;;;;;;;7.90;3.63;;;;;;;24.91;44.67;101039.53;4953276;28;20122;-87
2021/06/02 10:11:11;;;;;;;4.57;2.92;;;;;;;24.86;42.33;101036.75;4980814;28;20062;-87
2021/06/02 10:13:38;;;;;;;3.33;2.35;;;;;;;24.91;40.09;101044.22;4994731;28;20045;-87
2021/06/02 10:16:05;;;;;;;4.80;2.95;;;;;;;25.07;41.35;101040.59;4992876;28;20173;-87
2021/06/02 10:18:38;;;;;;;3.88;3.00;;;;;;;25.09;41.14;101030.19;4999691;28;20046;-86
2021/06/02 10:21:14;;;;;;;4.65;3.13;;;;;;;25.07;39.83;101035.09;4952802;28;20042;-87
2021/06/02 10:23:44;;;;;;;5.45;3.00;;;;;;;25.23;40.53;101029.81;4994915;28;20089;-87
2021/06/02 10:26:12;;;;;;;3.55;2.50;;;;;;;25.15;35.88;101034.69;4989793;28;20239;-87
2021/06/02 10:28:38;;;;;;;4.00;2.85;;;;;;;25.14;39.55;101029.44;4978737;28;20046;-84
2021/06/02 10:31:06;;;;;;;4.20;3.13;;;;;;;25.08;35.62;101023.03;4966738;28;20054;-84
2021/06/02 10:33:32;;;;;;;4.65;3.03;;;;;;;25.11;37.57;101029.94;4992916;28;20552;-85
2021/06/02 10:36:00;;;;;;;3.72;2.47;;;;;;;25.22;35.98;101026.25;5005250;28;20034;-87
2021/06/02 10:38:28;;;;;;;3.67;2.63;;;;;;;25.19;40.31;101024.03;4996393;28;20120;-87
2021/06/02 10:40:55;;;;;;;5.15;2.80;;;;;;;25.57;39.23;101022.25;4973316;28;20045;-87
2021/06/02 10:43:25;;;;;;;4.13;2.30;;;;;;;25.59;38.46;101028.31;4970688;28;20046;-86
2021/06/02 10:46:02;;;;;;;7.15;2.80;;;;;;;25.70;39.10;101024.59;4985160;28;20129;-87
2021/06/02 10:48:53;;;;;;;3.22;2.17;;;;;;;25.71;36.13;101029.00;5009099;28;20045;-86
2021/06/02 10:51:39;;;;;;;6.22;2.53;;;;;;;25.59;37.36;101028.31;4961405;28;20132;-86
2021/06/02 10:54:40;;;;;;;7.35;2.75;;;;;;;25.83;35.94;101031.59;4992672;28;20128;-86
2021/06/02 10:57:07;;;;;;;4.18;2.33;;;;;;;25.75;36.82;101023.78;4954847;28;20168;-86
2021/06/02 10:59:38;;;;;;;6.32;2.47;;;;;;;25.78;37.59;101024.13;4999294;28;20163;-87
2021/06/02 11:02:08;;;;;;;4.18;2.42;;;;;;;25.84;34.30;101017.63;5000053;28;20060;-86
2021/06/02 11:04:36;;;;;;;6.88;2.80;;;;;;;25.83;36.96;101024.19;4984644;28;20064;-86
2021/06/02 11:07:19;;;;;;;5.28;2.67;;;;;;;26.08;38.15;101020.03;4992574;28;20064;-87
2021/06/02 11:10:04;;;;;;;4.18;2.67;;;;;;;26.15;35.36;101014.28;4973009;28;20077;-85
2021/06/02 11:12:44;;;;;;;3.67;2.50;;;;;;;26.17;36.70;101015.69;4981710;28;20124;-85
2021/06/02 11:15:36;;;;;;;4.18;2.65;;;;;;;26.26;38.62;101007.78;4998477;28;20166;-85
2021/06/02 11:18:12;;;;;;;4.05;2.35;;;;;;;26.28;36.64;101008.34;4978002;28;20503;-85
2021/06/02 11:20:50;;;;;;;5.35;2.90;;;;;;;26.28;35.08;101006.44;4986280;28;20041;-85
2021/06/02 11:23:19;;;;;;;4.55;2.70;;;;;;;26.47;37.83;101006.84;4993122;28;20533;-85
2021/06/02 11:25:46;;;;;;;4.45;2.72;;;;;;;26.50;37.20;101013.78;4982935;28;20044;-84
2021/06/02 11:28:44;;;;;;;4.75;3.20;;;;;;;26.25;35.90;101014.38;5005355;28;20049;-84
2021/06/02 11:31:32;;;;;;;5.15;3.13;;;;;;;26.38;35.93;101013.09;4988191;28;20120;-85
2021/06/02 11:34:27;;;;;;;4.88;3.40;;;;;;;26.28;34.55;101025.69;4989449;28;20045;-85
2021/06/02 11:37:13;;;;;;;6.50;3.33;;;;;;;26.29;35.43;101016.31;4963345;28;20104;-85
2021/06/02 11:39:41;;;;;;;4.22;2.90;;;;;;;26.24;35.06;101013.56;4982296;28;20046;-85
2021/06/02 11:42:27;;;;;;;4.70;3.28;;;;;;;26.29;37.58;101027.31;4969494;28;20129;-84
2021/06/02 11:45:10;;;;;;;4.88;2.88;;;;;;;26.45;36.26;101031.03;4981248;28;20045;-85
2021/06/02 11:47:38;;;;;;;4.50;3.22;;;;;;;26.34;36.62;101026.56;4997386;28;20053;-85
2021/06/02 11:50:09;;;;;;;4.20;3.20;;;;;;;26.25;34.41;101019.88;4971371;28;20125;-84
2021/06/02 11:52:34;;;;;;;5.40;2.78;;;;;;;25.93;35.31;101017.97;4981997;28;20042;-84
2021/06/02 11:55:01;;;;;;;4.97;3.05;;;;;;;26.17;36.01;101026.69;4991326;28;20118;-85
2021/06/02 11:57:32;;;;;;;5.20;2.92;;;;;;;26.25;36.52;101026.22;4983999;28;20066;-85
2021/06/02 12:00:05;;;;;;;3.95;2.83;;;;;;;26.34;34.93;101012.78;4994042;28;20097;-85
2021/06/02 12:02:31;;;;;;;4.22;2.55;;;;;;;26.47;34.02;101017.00;4980155;28;20049;-85